createdAt,value
2023-01-26T00:01:25.752Z,61.60
2023-01-26T00:03:52.891Z,61.90
2023-01-26T00:06:21.520Z,61.70
2023-01-26T00:08:53.637Z,61.60
2023-01-26T00:11:32.075Z,61.60
2023-01-26T00:14:00.584Z,61.60
2023-01-26T00:16:28.144Z,61.50
2023-01-26T00:18:55.142Z,61.70
2023-01-26T00:21:23.768Z,61.90
2023-01-26T00:23:51.868Z,62.00
2023-01-26T00:26:21.348Z,62.00
2023-01-26T00:28:48.533Z,62.00
2023-01-26T00:31:18.384Z,62.10
2023-01-26T00:33:46.080Z,62.00
2023-01-26T00:36:13.579Z,62.00
2023-01-26T00:38:41.109Z,62.00
2023-01-26T00:41:09.259Z,62.00
2023-01-26T00:43:36.103Z,62.10
2023-01-26T00:46:03.220Z,62.10
2023-01-26T00:48:30.068Z,62.00
2023-01-26T00:50:57.164Z,61.90
2023-01-26T00:53:24.104Z,61.80
2023-01-26T00:55:55.959Z,61.80
2023-01-26T00:58:22.928Z,61.90
2023-01-26T01:00:49.892Z,61.90
2023-01-26T01:03:17.033Z,62.00
2023-01-26T01:05:47.365Z,62.70
2023-01-26T01:08:14.396Z,62.40
2023-01-26T01:10:41.293Z,62.40
2023-01-26T01:13:08.172Z,62.40
2023-01-26T01:15:35.007Z,62.50
2023-01-26T01:18:01.874Z,62.70
2023-01-26T01:20:30.113Z,62.60
2023-01-26T01:22:57.002Z,63.00
2023-01-26T01:25:26.910Z,63.00
2023-01-26T01:27:53.991Z,63.00
2023-01-26T01:30:20.900Z,63.20
2023-01-26T01:32:51.523Z,63.10
2023-01-26T01:35:18.476Z,63.40
2023-01-26T01:37:45.555Z,63.40
2023-01-26T01:40:13.666Z,63.50
2023-01-26T01:42:47.484Z,63.80
2023-01-26T01:45:26.480Z,63.70
2023-01-26T01:47:59.398Z,63.90
2023-01-26T01:50:27.495Z,63.90
2023-01-26T01:52:56.028Z,64.00
2023-01-26T01:55:25.471Z,63.80
2023-01-26T01:57:56.919Z,63.70
2023-01-26T02:00:24.534Z,63.80
2023-01-26T02:03:12.729Z,63.90
2023-01-26T02:05:54.253Z,63.80
2023-01-26T02:08:44.248Z,64.00
2023-01-26T02:11:17.602Z,64.00
2023-01-26T02:13:48.882Z,63.90
2023-01-26T02:16:17.855Z,63.80
2023-01-26T02:18:46.355Z,64.00
2023-01-26T02:21:18.119Z,64.00
2023-01-26T02:24:17.207Z,63.90
2023-01-26T02:26:44.297Z,63.90
2023-01-26T02:29:12.082Z,64.00
2023-01-26T02:31:43.269Z,64.00
2023-01-26T02:34:10.185Z,63.80
2023-01-26T02:36:37.925Z,64.00
2023-01-26T02:39:30.062Z,64.00
2023-01-26T02:42:16.143Z,64.30
2023-01-26T02:44:44.196Z,64.20
2023-01-26T02:47:14.168Z,64.10
2023-01-26T02:49:47.911Z,63.90
2023-01-26T02:52:22.664Z,63.90
2023-01-26T02:55:19.328Z,63.90
2023-01-26T02:57:47.063Z,63.70
2023-01-26T03:00:18.401Z,64.00
2023-01-26T03:02:48.147Z,64.20
2023-01-26T03:05:15.728Z,64.20
2023-01-26T03:07:43.368Z,64.10
2023-01-26T03:10:11.975Z,64.40
2023-01-26T03:12:42.430Z,64.20
2023-01-26T03:15:28.348Z,64.20
2023-01-26T03:18:35.818Z,64.20
2023-01-26T03:21:24.885Z,64.20
2023-01-26T03:24:11.022Z,64.20
2023-01-26T03:26:57.916Z,65.10
2023-01-26T03:29:26.673Z,64.50
2023-01-26T03:31:59.272Z,64.50
2023-01-26T03:34:35.843Z,64.50
2023-01-26T03:37:05.449Z,64.40
2023-01-26T03:40:06.358Z,64.40
2023-01-26T03:42:54.391Z,64.30
2023-01-26T03:45:40.811Z,64.20
2023-01-26T03:48:30.993Z,64.30
2023-01-26T03:51:17.601Z,64.60
2023-01-26T03:54:03.384Z,66.00
2023-01-26T03:56:34.104Z,66.40
2023-01-26T03:59:15.399Z,66.60
2023-01-26T04:02:04.633Z,66.60
2023-01-26T04:04:51.270Z,66.80
2023-01-26T04:07:39.115Z,67.00
2023-01-26T04:10:06.790Z,67.20
2023-01-26T04:12:34.487Z,67.20
2023-01-26T04:15:34.009Z,67.20
2023-01-26T04:18:29.022Z,67.10
2023-01-26T04:21:15.186Z,67.40
2023-01-26T04:23:47.270Z,67.40
2023-01-26T04:26:15.310Z,67.40
2023-01-26T04:28:43.061Z,67.60
2023-01-26T04:31:11.060Z,67.60
2023-01-26T04:33:38.771Z,67.60
2023-01-26T04:36:08.625Z,67.50
2023-01-26T04:38:41.868Z,67.60
2023-01-26T04:41:09.284Z,67.30
2023-01-26T04:43:47.769Z,67.30
2023-01-26T04:46:15.512Z,67.50
2023-01-26T04:48:46.154Z,67.80
2023-01-26T04:51:15.785Z,67.70
2023-01-26T04:53:42.717Z,67.60
2023-01-26T04:56:31.275Z,67.80
2023-01-26T04:59:01.513Z,67.70
2023-01-26T05:01:29.195Z,67.60
2023-01-26T05:03:56.486Z,67.70
2023-01-26T05:06:23.591Z,67.80
2023-01-26T05:08:51.240Z,67.90
2023-01-26T05:11:18.747Z,67.90
2023-01-26T05:14:02.331Z,67.90
2023-01-26T05:16:46.400Z,67.90
2023-01-26T05:19:48.736Z,67.90
2023-01-26T05:22:28.058Z,68.20
2023-01-26T05:25:18.102Z,68.20
2023-01-26T05:27:57.721Z,68.00
2023-01-26T05:30:24.784Z,67.90
2023-01-26T05:32:51.845Z,67.90
2023-01-26T05:35:18.897Z,68.00
2023-01-26T05:37:46.664Z,68.00
2023-01-26T05:40:14.723Z,67.90
2023-01-26T05:42:44.073Z,67.80
2023-01-26T05:45:23.963Z,68.00
2023-01-26T05:47:54.922Z,68.00
2023-01-26T05:50:21.692Z,67.90
2023-01-26T05:53:08.523Z,68.00
2023-01-26T05:55:37.261Z,67.90
2023-01-26T05:58:04.804Z,67.70
2023-01-26T06:00:31.687Z,67.90
2023-01-26T06:03:06.899Z,67.70
2023-01-26T06:05:33.783Z,67.80
2023-01-26T06:08:06.143Z,68.10
2023-01-26T06:10:46.412Z,67.90
2023-01-26T06:13:24.461Z,67.80
2023-01-26T06:15:54.322Z,68.10
2023-01-26T06:18:25.656Z,68.10
2023-01-26T06:20:59.339Z,68.80
2023-01-26T06:23:26.643Z,68.20
2023-01-26T06:26:01.258Z,68.10
2023-01-26T06:28:30.485Z,68.10
2023-01-26T06:31:04.828Z,68.10
2023-01-26T06:33:34.988Z,68.00
2023-01-26T06:36:15.590Z,67.90
2023-01-26T06:38:49.204Z,67.90
2023-01-26T06:41:17.442Z,68.00
2023-01-26T06:43:46.576Z,67.90
2023-01-26T06:46:14.638Z,68.10
2023-01-26T06:48:42.524Z,68.00
2023-01-26T06:51:38.484Z,67.90
2023-01-26T06:54:05.300Z,67.80
2023-01-26T06:56:36.957Z,67.70
2023-01-26T06:59:25.762Z,67.90
2023-01-26T07:02:20.941Z,68.00
2023-01-26T07:04:49.163Z,67.90
2023-01-26T07:07:15.998Z,68.10
2023-01-26T07:09:42.839Z,68.00
2023-01-26T07:12:09.645Z,68.10
2023-01-26T07:14:36.402Z,67.90
2023-01-26T07:17:03.452Z,68.00
2023-01-26T07:19:31.417Z,68.00
2023-01-26T07:21:58.271Z,67.90
2023-01-26T07:24:25.283Z,67.90
2023-01-26T07:26:52.526Z,67.80
2023-01-26T07:29:19.331Z,67.80
2023-01-26T07:31:46.221Z,67.70
2023-01-26T07:34:13.241Z,67.90
2023-01-26T07:36:40.268Z,67.80
2023-01-26T07:39:08.632Z,68.00
2023-01-26T07:41:35.973Z,67.90
2023-01-26T07:44:13.340Z,67.90
2023-01-26T07:46:41.410Z,67.90
2023-01-26T07:49:08.213Z,67.90
2023-01-26T07:51:35.044Z,67.80
2023-01-26T07:54:02.607Z,68.00
2023-01-26T07:56:29.551Z,68.00
2023-01-26T07:58:56.806Z,67.90
2023-01-26T08:01:24.029Z,67.90
2023-01-26T08:03:51.959Z,68.00
2023-01-26T08:06:19.225Z,67.80
2023-01-26T08:08:51.189Z,67.80
2023-01-26T08:11:23.320Z,67.80
2023-01-26T08:13:50.124Z,67.80
2023-01-26T08:16:17.401Z,68.00
2023-01-26T08:18:46.087Z,68.00
2023-01-26T08:21:14.948Z,67.80
2023-01-26T08:23:41.987Z,67.90
2023-01-26T08:26:11.895Z,67.70
2023-01-26T08:28:39.189Z,67.70
2023-01-26T08:31:08.159Z,67.50
2023-01-26T08:33:35.652Z,67.60
2023-01-26T08:36:07.448Z,67.60
2023-01-26T08:38:35.044Z,67.70
2023-01-26T08:41:03.133Z,67.70
2023-01-26T08:43:30.541Z,67.20
2023-01-26T08:45:57.932Z,67.10
2023-01-26T08:48:24.821Z,67.10
2023-01-26T08:51:03.460Z,67.10
2023-01-26T08:53:32.455Z,67.00
2023-01-26T08:56:06.249Z,67.10
2023-01-26T08:58:33.845Z,67.50
2023-01-26T09:01:14.871Z,67.40
2023-01-26T09:03:45.501Z,67.70
2023-01-26T09:06:15.784Z,67.70
2023-01-26T09:08:42.897Z,67.70
2023-01-26T09:11:09.843Z,67.40
2023-01-26T09:13:40.292Z,67.50
2023-01-26T09:16:12.580Z,67.60
2023-01-26T09:18:39.714Z,67.70
2023-01-26T09:21:07.922Z,67.70
2023-01-26T09:23:36.383Z,67.50
2023-01-26T09:26:04.013Z,67.20
2023-01-26T09:28:31.091Z,67.30
2023-01-26T09:30:58.062Z,66.80
2023-01-26T09:33:26.755Z,66.80
2023-01-26T09:35:53.857Z,66.30
2023-01-26T09:38:20.613Z,66.20
2023-01-26T09:41:02.977Z,66.20
2023-01-26T09:43:47.768Z,65.70
2023-01-26T09:46:27.706Z,65.50
2023-01-26T09:49:03.550Z,65.20
2023-01-26T09:52:04.775Z,65.40
2023-01-26T09:54:44.495Z,65.50
2023-01-26T09:57:14.711Z,65.00
2023-01-26T09:59:58.879Z,64.60
2023-01-26T10:02:55.244Z,64.50
2023-01-26T10:05:41.047Z,63.60
2023-01-26T10:08:16.841Z,62.90
2023-01-26T10:10:52.850Z,62.40
2023-01-26T10:13:20.344Z,62.20
2023-01-26T10:16:10.418Z,61.90
2023-01-26T10:18:49.114Z,61.50
2023-01-26T10:21:18.755Z,61.10
2023-01-26T10:23:49.397Z,61.60
2023-01-26T10:26:18.981Z,62.40
2023-01-26T10:28:48.374Z,63.00
2023-01-26T10:31:24.913Z,63.10
2023-01-26T10:33:58.559Z,63.50
2023-01-26T10:36:29.266Z,63.90
2023-01-26T10:39:05.427Z,64.30
2023-01-26T10:41:32.562Z,65.00
2023-01-26T10:44:15.030Z,65.20
2023-01-26T10:46:42.869Z,65.30
2023-01-26T10:49:09.637Z,65.70
2023-01-26T10:51:39.025Z,65.70
2023-01-26T10:54:20.714Z,66.00
2023-01-26T10:56:51.331Z,66.40
2023-01-26T10:59:51.531Z,66.10
2023-01-26T11:02:22.516Z,66.00
2023-01-26T11:05:18.268Z,65.30
2023-01-26T11:07:47.423Z,64.10
2023-01-26T11:10:25.773Z,62.50
2023-01-26T11:13:26.178Z,61.60
2023-01-26T11:16:19.340Z,62.10
2023-01-26T11:19:06.421Z,63.50
2023-01-26T11:21:51.206Z,64.50
2023-01-26T11:24:42.642Z,64.10
2023-01-26T11:27:28.115Z,65.10
2023-01-26T11:30:23.560Z,64.00
2023-01-26T11:32:50.230Z,64.30
2023-01-26T11:35:34.444Z,64.90
2023-01-26T11:38:21.034Z,64.70
2023-01-26T11:40:56.174Z,64.10
2023-01-26T11:43:32.666Z,63.90
2023-01-26T11:46:25.703Z,63.60
2023-01-26T11:48:58.302Z,64.00
2023-01-26T11:52:06.112Z,62.90
2023-01-26T11:54:38.462Z,63.40
2023-01-26T11:57:21.755Z,62.40
2023-01-26T11:59:55.175Z,62.00
2023-01-26T12:02:34.032Z,63.50
2023-01-26T12:05:25.197Z,64.00
2023-01-26T12:08:00.941Z,64.20
2023-01-26T12:10:33.140Z,64.20
2023-01-26T12:13:10.633Z,64.80
2023-01-26T12:15:39.824Z,64.60
2023-01-26T12:18:09.819Z,63.10
2023-01-26T12:20:41.218Z,63.50
2023-01-26T12:23:19.918Z,63.10
2023-01-26T12:26:05.681Z,63.10
2023-01-26T12:28:39.336Z,63.50
2023-01-26T12:31:22.723Z,62.90
2023-01-26T12:33:53.900Z,63.80
2023-01-26T12:36:43.307Z,63.70
2023-01-26T12:39:15.624Z,62.80
2023-01-26T12:41:57.532Z,60.50
2023-01-26T12:44:46.193Z,58.90
2023-01-26T12:47:22.021Z,57.80
2023-01-26T12:50:21.826Z,57.30
2023-01-26T12:53:09.677Z,57.50
2023-01-26T12:55:48.218Z,56.60
2023-01-26T12:58:20.295Z,56.70
2023-01-26T13:01:04.834Z,55.80
2023-01-26T13:03:38.359Z,54.80
2023-01-26T13:06:10.930Z,56.20
2023-01-26T13:08:37.683Z,57.30
2023-01-26T13:11:09.519Z,58.30
2023-01-26T13:13:56.410Z,58.30
2023-01-26T13:16:23.664Z,59.80
2023-01-26T13:18:51.764Z,59.50
2023-01-26T13:21:39.841Z,59.90
2023-01-26T13:24:18.805Z,60.40
2023-01-26T13:26:53.926Z,60.20
2023-01-26T13:29:31.928Z,59.50
2023-01-26T13:32:13.492Z,59.70
2023-01-26T13:35:00.363Z,59.80
2023-01-26T13:38:04.772Z,59.20
2023-01-26T13:40:37.253Z,59.70
2023-01-26T13:43:27.202Z,59.60
2023-01-26T13:46:12.983Z,59.10
2023-01-26T13:48:39.690Z,58.90
2023-01-26T13:51:09.202Z,58.20
2023-01-26T13:53:37.472Z,58.10
2023-01-26T13:56:06.926Z,57.70
2023-01-26T13:58:34.224Z,57.60
2023-01-26T14:01:06.623Z,57.70
2023-01-26T14:03:33.511Z,58.10
2023-01-26T14:06:19.753Z,58.40
2023-01-26T14:08:56.407Z,58.40
2023-01-26T14:11:26.650Z,58.60
2023-01-26T14:13:56.594Z,58.20
2023-01-26T14:16:37.497Z,57.90
2023-01-26T14:19:17.648Z,58.40
2023-01-26T14:21:51.882Z,58.60
2023-01-26T14:24:25.290Z,58.20
2023-01-26T14:26:52.175Z,58.20
2023-01-26T14:29:25.363Z,58.40
2023-01-26T14:31:54.275Z,58.40
2023-01-26T14:34:27.255Z,58.50
2023-01-26T14:37:14.657Z,58.40
2023-01-26T14:39:44.856Z,58.00
2023-01-26T14:42:17.263Z,58.70
2023-01-26T14:44:44.275Z,58.50
2023-01-26T14:47:24.262Z,58.10
2023-01-26T14:50:19.307Z,58.70
2023-01-26T14:52:46.992Z,58.90
2023-01-26T14:55:31.282Z,59.10
2023-01-26T14:58:00.874Z,59.00
2023-01-26T15:00:37.103Z,58.80
2023-01-26T15:03:17.314Z,59.20
2023-01-26T15:05:44.583Z,59.90
2023-01-26T15:08:23.695Z,59.80
2023-01-26T15:11:19.571Z,60.00
2023-01-26T15:13:48.826Z,60.10
2023-01-26T15:16:18.394Z,60.60
2023-01-26T15:18:47.646Z,61.00
2023-01-26T15:21:19.438Z,60.90
2023-01-26T15:23:50.628Z,61.20
2023-01-26T15:26:28.754Z,61.20
2023-01-26T15:28:57.734Z,61.40
2023-01-26T15:31:37.578Z,61.30
2023-01-26T15:34:05.570Z,61.50
2023-01-26T15:36:47.103Z,61.50
2023-01-26T15:39:18.929Z,61.70
2023-01-26T15:41:59.385Z,61.80
2023-01-26T15:44:26.129Z,61.70
2023-01-26T15:46:52.922Z,61.60
2023-01-26T15:49:22.821Z,61.90
2023-01-26T15:51:49.549Z,61.90
2023-01-26T15:54:16.418Z,62.20
2023-01-26T15:56:43.257Z,62.10
2023-01-26T15:59:09.985Z,63.00
2023-01-26T16:01:36.853Z,62.10
2023-01-26T16:04:03.706Z,61.80
2023-01-26T16:06:32.839Z,61.60
2023-01-26T16:08:59.769Z,61.30
2023-01-26T16:11:33.846Z,61.70
2023-01-26T16:14:04.137Z,61.40
2023-01-26T16:16:32.620Z,60.90
2023-01-26T16:18:59.932Z,60.20
2023-01-26T16:21:31.386Z,59.50
2023-01-26T16:23:58.625Z,59.60
2023-01-26T16:26:26.444Z,59.30
2023-01-26T16:28:54.656Z,59.40
2023-01-26T16:31:28.962Z,59.50
2023-01-26T16:33:56.566Z,59.50
2023-01-26T16:36:23.322Z,59.00
2023-01-26T16:38:50.439Z,59.50
2023-01-26T16:41:26.439Z,59.20
2023-01-26T16:43:58.083Z,59.40
2023-01-26T16:46:25.859Z,59.50
2023-01-26T16:48:53.224Z,59.40
2023-01-26T16:51:29.295Z,59.60
2023-01-26T16:53:56.882Z,59.60
2023-01-26T16:56:24.741Z,59.60
2023-01-26T16:58:51.848Z,59.70
2023-01-26T17:01:28.334Z,59.70
2023-01-26T17:03:58.860Z,59.70
2023-01-26T17:06:25.697Z,59.50
2023-01-26T17:08:52.769Z,59.40
2023-01-26T17:11:22.809Z,60.00
2023-01-26T17:13:50.224Z,59.70
2023-01-26T17:16:25.000Z,60.30
2023-01-26T17:18:52.484Z,59.70
2023-01-26T17:21:19.836Z,59.30
2023-01-26T17:23:54.555Z,59.40
2023-01-26T17:26:22.203Z,59.70
2023-01-26T17:28:52.531Z,59.60
2023-01-26T17:31:22.088Z,59.70
2023-01-26T17:33:50.525Z,59.70
2023-01-26T17:36:19.085Z,59.80
2023-01-26T17:38:46.458Z,59.80
2023-01-26T17:41:13.225Z,60.70
2023-01-26T17:43:40.072Z,60.80
2023-01-26T17:46:10.146Z,59.80
2023-01-26T17:48:40.103Z,59.60
2023-01-26T17:51:12.953Z,59.60
2023-01-26T17:53:41.003Z,59.70
2023-01-26T17:56:09.631Z,59.60
2023-01-26T17:58:36.922Z,59.70
2023-01-26T18:01:05.784Z,59.80
2023-01-26T18:03:32.977Z,59.70
2023-01-26T18:06:00.336Z,59.40
2023-01-26T18:08:28.063Z,59.50
2023-01-26T18:11:00.376Z,59.40
2023-01-26T18:13:28.344Z,59.40
2023-01-26T18:15:55.193Z,59.40
2023-01-26T18:18:26.887Z,59.10
2023-01-26T18:20:53.856Z,59.20
2023-01-26T18:23:21.659Z,59.20
2023-01-26T18:25:48.444Z,59.10
2023-01-26T18:28:16.278Z,59.10
2023-01-26T18:30:43.187Z,58.60
2023-01-26T18:33:09.939Z,58.70
2023-01-26T18:35:36.814Z,58.70
2023-01-26T18:38:04.123Z,58.50
2023-01-26T18:40:31.047Z,58.30
2023-01-26T18:42:58.001Z,58.50
2023-01-26T18:45:24.957Z,58.40
2023-01-26T18:47:51.829Z,58.40
2023-01-26T18:50:18.769Z,58.20
2023-01-26T18:52:45.531Z,58.20
2023-01-26T18:55:12.679Z,58.00
2023-01-26T18:57:39.654Z,58.20
2023-01-26T19:00:09.142Z,58.30
2023-01-26T19:02:38.917Z,58.40
2023-01-26T19:05:09.263Z,58.30
2023-01-26T19:07:36.143Z,59.10
2023-01-26T19:10:04.869Z,58.10
2023-01-26T19:12:31.805Z,58.40
2023-01-26T19:14:58.660Z,58.60
2023-01-26T19:17:25.419Z,58.50
2023-01-26T19:19:52.267Z,58.30
2023-01-26T19:22:19.159Z,58.30
2023-01-26T19:24:45.959Z,58.30
2023-01-26T19:27:13.419Z,58.50
2023-01-26T19:29:40.201Z,58.70
2023-01-26T19:32:07.004Z,58.60
2023-01-26T19:34:35.072Z,58.50
2023-01-26T19:37:01.867Z,58.80
2023-01-26T19:39:28.792Z,58.70
2023-01-26T19:41:55.530Z,58.70
2023-01-26T19:44:22.280Z,58.80
2023-01-26T19:46:51.374Z,59.00
2023-01-26T19:49:20.040Z,58.90
2023-01-26T19:51:47.154Z,59.20
2023-01-26T19:54:14.654Z,59.30
2023-01-26T19:56:41.646Z,59.20
2023-01-26T19:59:11.487Z,59.50
2023-01-26T20:01:38.506Z,59.50
2023-01-26T20:04:09.489Z,59.50
2023-01-26T20:06:36.881Z,59.60
2023-01-26T20:09:05.704Z,59.70
2023-01-26T20:11:33.922Z,59.50
2023-01-26T20:14:06.428Z,59.60
2023-01-26T20:16:34.347Z,59.50
2023-01-26T20:19:02.122Z,60.00
2023-01-26T20:21:31.214Z,60.30
2023-01-26T20:24:04.684Z,60.50
2023-01-26T20:26:32.342Z,60.70
2023-01-26T20:28:59.310Z,60.80
2023-01-26T20:31:27.094Z,60.50
2023-01-26T20:33:54.023Z,60.50
2023-01-26T20:36:24.629Z,60.70
2023-01-26T20:38:52.095Z,60.80
2023-01-26T20:41:23.749Z,60.90
2023-01-26T20:43:59.676Z,60.90
2023-01-26T20:46:30.731Z,61.10
2023-01-26T20:48:57.684Z,61.20
2023-01-26T20:51:29.140Z,61.10
2023-01-26T20:53:57.438Z,60.90
2023-01-26T20:56:24.597Z,60.90
2023-01-26T20:58:55.789Z,60.90
2023-01-26T21:01:24.004Z,61.00
2023-01-26T21:03:51.474Z,61.80
2023-01-26T21:06:20.432Z,61.20
2023-01-26T21:08:48.516Z,61.50
2023-01-26T21:11:17.347Z,61.70
2023-01-26T21:13:44.476Z,61.80
2023-01-26T21:16:14.023Z,61.90
2023-01-26T21:18:41.611Z,61.90
2023-01-26T21:21:11.982Z,62.00
2023-01-26T21:23:38.854Z,62.10
2023-01-26T21:26:09.581Z,62.10
2023-01-26T21:28:36.390Z,62.10
2023-01-26T21:31:07.345Z,62.30
2023-01-26T21:33:37.235Z,62.20
2023-01-26T21:36:05.602Z,62.30
2023-01-26T21:38:39.036Z,62.30
2023-01-26T21:41:29.894Z,62.40
2023-01-26T21:44:01.913Z,62.60
2023-01-26T21:46:29.778Z,62.70
2023-01-26T21:48:57.114Z,62.70
2023-01-26T21:51:43.420Z,62.80
2023-01-26T21:54:11.316Z,62.90
2023-01-26T21:56:38.086Z,62.90
2023-01-26T21:59:08.159Z,63.10
2023-01-26T22:01:40.085Z,63.00
2023-01-26T22:04:09.595Z,63.00
2023-01-26T22:06:37.413Z,62.80
2023-01-26T22:09:09.186Z,62.70
2023-01-26T22:11:35.972Z,62.60
2023-01-26T22:14:02.938Z,62.50
2023-01-26T22:16:29.834Z,62.30
2023-01-26T22:18:56.863Z,62.20
2023-01-26T22:21:24.141Z,62.20
2023-01-26T22:23:51.106Z,62.30
2023-01-26T22:26:19.980Z,62.60
2023-01-26T22:28:51.492Z,62.80
2023-01-26T22:31:22.371Z,62.70
2023-01-26T22:33:53.060Z,62.90
2023-01-26T22:36:20.505Z,63.10
2023-01-26T22:38:47.894Z,63.00
2023-01-26T22:41:19.666Z,63.10
2023-01-26T22:43:50.938Z,63.00
2023-01-26T22:46:19.683Z,62.80
2023-01-26T22:48:46.703Z,62.80
2023-01-26T22:51:18.060Z,62.80
2023-01-26T22:53:45.413Z,62.90
2023-01-26T22:56:12.688Z,63.00
2023-01-26T22:58:56.567Z,63.10
2023-01-26T23:01:25.814Z,63.20
2023-01-26T23:03:54.033Z,63.20
2023-01-26T23:06:21.423Z,63.10
2023-01-26T23:08:48.560Z,62.90
2023-01-26T23:11:19.704Z,62.70
2023-01-26T23:13:48.486Z,62.80
2023-01-26T23:16:15.501Z,62.50
2023-01-26T23:18:42.751Z,62.50
2023-01-26T23:21:10.315Z,62.20
2023-01-26T23:23:39.837Z,62.30
2023-01-26T23:26:07.700Z,62.20
2023-01-26T23:28:37.418Z,62.50
2023-01-26T23:31:04.569Z,62.40
2023-01-26T23:33:33.375Z,62.30
2023-01-26T23:36:01.195Z,62.10
2023-01-26T23:38:29.722Z,61.90
2023-01-26T23:40:57.407Z,61.90
2023-01-26T23:43:24.478Z,61.80
2023-01-26T23:45:51.818Z,61.80
2023-01-26T23:48:19.878Z,62.00
2023-01-26T23:50:47.066Z,61.60
2023-01-26T23:53:14.513Z,61.70
2023-01-26T23:55:42.995Z,61.60
2023-01-26T23:58:11.368Z,62.10
